Time;durP1;ratioP1;P1;durP2;ratioP2;P2;SDS_P1;SDS_P2;PMS_P1;PMS_P2;Temp;Humidity;BMP_temperature;BMP_pressure;BME280_temperature;BME280_humidity;BME280_pressure;Samples;Min_cycle;Max_cycle;Signal;HPM_P1;HPM_P2
2023/06/25 00:00:04;;;;;;;3.83;3.53;;;23.30;59.70;;;;;;5055895;28;20175;-71
2023/06/25 00:02:29;;;;;;;3.78;3.47;;;23.30;59.60;;;;;;5055185;28;20229;-71
2023/06/25 00:04:55;;;;;;;3.50;3.22;;;23.30;59.70;;;;;;5055593;28;20167;-72
2023/06/25 00:07:20;;;;;;;3.78;3.47;;;23.20;59.70;;;;;;5055341;28;20232;-72
2023/06/25 00:09:53;;;;;;;4.15;3.83;;;23.30;59.80;;;;;;5055149;28;20211;-73
2023/06/25 00:12:19;;;;;;;3.85;3.55;;;23.20;59.60;;;;;;5055505;28;20171;-72
2023/06/25 00:14:44;;;;;;;3.47;3.20;;;23.30;59.70;;;;;;5055370;28;20202;-71
2023/06/25 00:17:10;;;;;;;3.92;3.63;;;23.20;59.70;;;;;;5054293;28;20224;-71
2023/06/25 00:19:35;;;;;;;4.20;3.83;;;23.30;59.80;;;;;;5055145;28;20171;-71
2023/06/25 00:22:01;;;;;;;4.25;3.85;;;23.30;59.80;;;;;;5054906;28;20171;-73
2023/06/25 00:24:26;;;;;;;4.35;3.95;;;23.20;59.80;;;;;;5054673;28;20182;-71
2023/06/25 00:26:52;;;;;;;4.35;4.00;;;23.30;59.80;;;;;;5054933;28;20594;-74
2023/06/25 00:29:17;;;;;;;3.75;3.45;;;23.20;59.70;;;;;;5054197;28;20211;-74
2023/06/25 00:31:43;;;;;;;3.90;3.60;;;23.20;59.80;;;;;;5054502;28;20174;-70
2023/06/25 00:34:09;;;;;;;3.92;3.63;;;23.30;59.80;;;;;;5054742;28;20214;-71
2023/06/25 00:36:36;;;;;;;3.70;3.30;;;23.20;59.80;;;;;;5054125;28;20167;-71
2023/06/25 00:39:03;;;;;;;3.75;3.45;;;23.30;59.80;;;;;;5054327;28;20235;-70
2023/06/25 00:41:29;;;;;;;4.18;3.80;;;23.20;59.70;;;;;;5054906;28;20179;-71
2023/06/25 00:43:55;;;;;;;4.10;3.70;;;23.20;59.70;;;;;;5053897;28;20183;-72
2023/06/25 00:46:23;;;;;;;4.47;4.07;;;23.20;59.70;;;;;;5054107;28;20203;-74
2023/06/25 00:48:49;;;;;;;3.90;3.60;;;23.20;59.70;;;;;;5055013;28;20207;-72
2023/06/25 00:51:15;;;;;;;4.03;3.60;;;23.20;59.80;;;;;;5035818;28;20233;-75
2023/06/25 00:53:40;;;;;;;4.32;3.92;;;23.20;59.80;;;;;;5054708;28;20174;-72
2023/06/25 00:56:06;;;;;;;4.22;3.80;;;23.20;59.80;;;;;;5054565;28;20589;-73
2023/06/25 00:58:34;;;;;;;4.40;4.07;;;23.20;59.80;;;;;;5052779;28;20167;-71
2023/06/25 01:01:00;;;;;;;4.20;3.80;;;23.20;59.70;;;;;;5054435;28;20202;-70
2023/06/25 01:03:30;;;;;;;4.72;4.22;;;23.20;59.70;;;;;;5036454;28;20210;-71
2023/06/25 01:06:04;;;;;;;4.45;4.05;;;23.20;59.70;;;;;;5052324;28;20175;-71
2023/06/25 01:08:30;;;;;;;4.32;4.03;;;23.20;59.80;;;;;;5053178;28;20179;-72
2023/06/25 01:10:56;;;;;;;4.70;4.30;;;23.20;59.80;;;;;;5036318;28;20183;-72
2023/06/25 01:13:21;;;;;;;4.55;4.15;;;23.20;59.70;;;;;;5053212;28;20664;-71
2023/06/25 01:15:47;;;;;;;4.30;3.90;;;23.20;59.80;;;;;;5054290;28;20180;-71
2023/06/25 01:18:13;;;;;;;3.85;3.45;;;23.20;59.80;;;;;;5054115;28;20186;-71
2023/06/25 01:20:40;;;;;;;4.20;3.80;;;23.20;59.80;;;;;;5051795;28;20176;-71
2023/06/25 01:23:06;;;;;;;5.45;4.95;;;23.20;59.80;;;;;;5052912;28;20272;-72
2023/06/25 01:25:32;;;;;;;4.40;4.00;;;23.20;59.80;;;;;;5052970;28;20650;-72
2023/06/25 01:27:57;;;;;;;4.32;3.92;;;23.20;59.80;;;;;;5053264;28;20183;-73
2023/06/25 01:30:25;;;;;;;4.47;4.10;;;23.20;59.80;;;;;;5053746;28;20318;-71
2023/06/25 01:32:50;;;;;;;4.50;4.10;;;23.20;59.80;;;;;;5053301;28;20172;-70
2023/06/25 01:35:16;;;;;;;4.55;4.15;;;23.20;59.80;;;;;;5053832;28;20237;-70
2023/06/25 01:37:42;;;;;;;4.55;4.15;;;23.20;59.80;;;;;;5053834;28;20306;-70
2023/06/25 01:40:08;;;;;;;4.53;4.13;;;23.20;59.80;;;;;;5052779;28;20187;-70
2023/06/25 01:42:34;;;;;;;4.53;4.13;;;23.20;59.80;;;;;;5053807;28;20181;-72
2023/06/25 01:45:00;;;;;;;5.97;4.63;;;23.20;59.90;;;;;;5053625;28;20699;-72
2023/06/25 01:47:25;;;;;;;3.80;3.50;;;23.20;59.80;;;;;;5053091;28;20175;-73
2023/06/25 01:49:51;;;;;;;4.63;4.22;;;23.20;59.80;;;;;;5053967;28;20223;-73
2023/06/25 01:52:16;;;;;;;4.63;4.07;;;23.20;59.80;;;;;;5053502;28;20178;-74
2023/06/25 01:54:42;;;;;;;4.20;3.80;;;23.20;59.80;;;;;;5053151;28;20205;-72
2023/06/25 01:57:08;;;;;;;4.25;3.85;;;23.20;59.80;;;;;;5053453;28;20254;-71
2023/06/25 01:59:34;;;;;;;4.43;4.03;;;23.20;59.80;;;;;;5053494;28;20171;-70
2023/06/25 02:02:01;;;;;;;4.35;3.97;;;23.20;59.80;;;;;;5052678;28;20179;-72
2023/06/25 02:04:26;;;;;;;5.03;4.25;;;23.20;59.80;;;;;;5053770;28;20188;-72
2023/06/25 02:06:52;;;;;;;4.30;3.95;;;23.20;59.80;;;;;;5053197;28;20179;-71
2023/06/25 02:09:17;;;;;;;4.22;3.92;;;23.10;59.70;;;;;;5052281;28;20206;-72
2023/06/25 02:11:43;;;;;;;3.95;3.63;;;23.20;59.70;;;;;;5053209;28;20167;-71
2023/06/25 02:14:09;;;;;;;4.38;3.97;;;23.20;59.80;;;;;;5052873;28;20638;-71
2023/06/25 02:16:34;;;;;;;5.18;4.68;;;23.20;59.80;;;;;;5052014;28;20286;-71
2023/06/25 02:19:00;;;;;;;4.43;4.03;;;23.10;59.70;;;;;;5051879;28;20202;-71
2023/06/25 02:21:25;;;;;;;4.60;4.20;;;23.20;59.80;;;;;;5053105;28;20657;-71
2023/06/25 02:23:51;;;;;;;5.00;4.60;;;23.20;59.80;;;;;;5052319;28;20626;-72
2023/06/25 02:26:16;;;;;;;4.97;4.57;;;23.10;59.60;;;;;;5052544;28;20170;-74
2023/06/25 02:28:42;;;;;;;4.63;4.22;;;23.20;59.70;;;;;;5051933;28;20676;-72
2023/06/25 02:31:08;;;;;;;4.60;4.20;;;23.10;59.70;;;;;;5051832;28;20194;-71
2023/06/25 02:33:33;;;;;;;5.32;4.78;;;23.10;59.70;;;;;;5052853;28;20689;-70
2023/06/25 02:35:59;;;;;;;4.75;4.35;;;23.20;59.70;;;;;;5052325;28;20171;-70
2023/06/25 02:38:24;;;;;;;5.03;4.63;;;23.10;59.60;;;;;;5052001;28;20306;-70
2023/06/25 02:40:50;;;;;;;5.00;4.60;;;23.10;59.60;;;;;;5052953;28;20167;-71
2023/06/25 02:43:15;;;;;;;4.85;4.35;;;23.20;59.70;;;;;;5051867;28;20630;-71
2023/06/25 02:45:41;;;;;;;5.20;4.78;;;23.10;59.60;;;;;;5052717;28;20708;-72
2023/06/25 02:48:06;;;;;;;5.68;4.63;;;23.10;59.70;;;;;;5052660;28;20171;-74
2023/06/25 02:50:32;;;;;;;5.72;4.75;;;23.10;59.70;;;;;;5051797;28;20207;-75
2023/06/25 02:52:58;;;;;;;5.82;4.35;;;23.10;59.60;;;;;;5052372;28;20223;-72
2023/06/25 02:55:24;;;;;;;5.40;4.90;;;23.10;59.70;;;;;;5052740;28;20214;-72
2023/06/25 02:57:49;;;;;;;5.28;4.75;;;23.10;59.70;;;;;;5051759;28;20213;-71
2023/06/25 03:00:15;;;;;;;5.15;4.75;;;23.10;59.70;;;;;;5052140;28;20183;-71
2023/06/25 03:02:41;;;;;;;4.68;4.28;;;23.10;59.70;;;;;;5052710;28;20182;-71
2023/06/25 03:05:07;;;;;;;5.20;4.80;;;23.10;59.70;;;;;;5051675;28;20186;-71
2023/06/25 03:07:33;;;;;;;5.40;4.90;;;23.10;59.70;;;;;;5052679;28;20183;-71
2023/06/25 03:09:58;;;;;;;5.28;4.63;;;23.10;59.70;;;;;;5052175;28;20222;-72
2023/06/25 03:12:24;;;;;;;5.30;4.80;;;23.10;59.70;;;;;;5051817;28;20190;-71
2023/06/25 03:14:49;;;;;;;5.57;5.07;;;23.10;59.70;;;;;;5052316;28;20254;-71
2023/06/25 03:17:15;;;;;;;5.60;5.00;;;23.10;59.70;;;;;;5052013;28;20341;-71
2023/06/25 03:19:40;;;;;;;4.78;4.35;;;23.10;59.70;;;;;;5051862;28;20178;-71
2023/06/25 03:22:06;;;;;;;5.10;4.70;;;23.10;59.70;;;;;;5052125;28;20184;-72
2023/06/25 03:24:31;;;;;;;5.30;4.90;;;23.10;59.70;;;;;;5052508;28;20175;-72
2023/06/25 03:26:57;;;;;;;5.38;4.90;;;23.10;60.40;;;;;;5051397;28;20185;-73
2023/06/25 03:29:22;;;;;;;5.13;4.72;;;23.10;59.70;;;;;;5050814;28;20653;-72
2023/06/25 03:31:49;;;;;;;5.20;4.72;;;23.10;59.70;;;;;;5055877;28;20175;-71
2023/06/25 03:34:14;;;;;;;5.20;4.80;;;23.10;59.70;;;;;;5055325;28;20183;-70
2023/06/25 03:36:40;;;;;;;6.00;5.28;;;23.10;59.70;;;;;;5056069;28;20175;-69
2023/06/25 03:39:05;;;;;;;4.85;4.40;;;23.10;59.70;;;;;;5055865;28;20222;-70
2023/06/25 03:41:31;;;;;;;4.95;4.53;;;23.10;59.70;;;;;;5055156;28;20175;-71
2023/06/25 03:43:56;;;;;;;4.70;4.40;;;23.10;59.70;;;;;;5055351;28;20262;-72
2023/06/25 03:46:22;;;;;;;5.65;5.15;;;23.10;59.70;;;;;;5055381;28;20179;-74
2023/06/25 03:48:47;;;;;;;5.07;4.68;;;23.10;59.70;;;;;;5055931;28;20669;-72
2023/06/25 03:51:13;;;;;;;8.13;4.97;;;23.00;59.60;;;;;;5055541;28;20190;-74
2023/06/25 03:53:38;;;;;;;4.95;4.55;;;23.10;59.70;;;;;;5055262;28;20225;-71
2023/06/25 03:56:04;;;;;;;5.53;4.95;;;23.10;59.70;;;;;;5055409;28;20253;-72
2023/06/25 03:58:30;;;;;;;5.05;4.60;;;23.10;59.60;;;;;;5055527;28;20182;-71
2023/06/25 04:00:55;;;;;;;5.15;4.75;;;23.10;59.60;;;;;;5054926;28;20206;-71
2023/06/25 04:03:21;;;;;;;5.45;4.95;;;23.10;59.60;;;;;;5055939;28;20645;-71
2023/06/25 04:05:47;;;;;;;4.97;4.57;;;23.10;59.60;;;;;;5055721;28;20544;-71
2023/06/25 04:08:13;;;;;;;5.18;4.68;;;23.10;59.60;;;;;;5054621;28;20181;-71
2023/06/25 04:10:39;;;;;;;5.93;5.43;;;23.10;59.60;;;;;;5055737;28;20591;-72
2023/06/25 04:13:04;;;;;;;5.13;4.55;;;23.10;59.50;;;;;;5055441;28;20638;-72
2023/06/25 04:15:30;;;;;;;4.68;4.28;;;23.10;59.50;;;;;;5054805;28;20232;-71
2023/06/25 04:17:55;;;;;;;5.22;4.72;;;23.10;59.50;;;;;;5055364;28;20253;-71
2023/06/25 04:20:23;;;;;;;5.20;4.68;;;23.10;59.40;;;;;;5055470;28;20182;-71
2023/06/25 04:22:48;;;;;;;5.50;5.00;;;23.10;59.50;;;;;;5054727;28;20266;-72
2023/06/25 04:25:14;;;;;;;5.55;4.43;;;23.10;59.40;;;;;;5055044;28;20258;-72
2023/06/25 04:27:39;;;;;;;5.13;4.65;;;23.10;59.40;;;;;;5055206;28;20229;-72
2023/06/25 04:30:06;;;;;;;5.18;4.68;;;23.10;59.40;;;;;;5054073;28;20210;-71
2023/06/25 04:32:32;;;;;;;5.15;4.65;;;23.10;59.40;;;;;;5055200;28;20544;-71
2023/06/25 04:34:58;;;;;;;6.63;5.18;;;23.10;59.40;;;;;;5054700;28;20217;-70
2023/06/25 04:37:24;;;;;;;4.82;4.40;;;23.10;60.00;;;;;;5054456;28;20202;-69
2023/06/25 04:39:49;;;;;;;5.15;4.65;;;23.10;59.40;;;;;;5055014;28;20237;-71
2023/06/25 04:42:16;;;;;;;5.47;5.00;;;23.20;59.40;;;;;;5053780;28;20203;-71
2023/06/25 04:44:41;;;;;;;4.68;4.28;;;23.20;59.40;;;;;;5054525;28;20171;-71
2023/06/25 04:47:07;;;;;;;5.60;5.10;;;23.20;59.40;;;;;;5054654;28;20626;-73
2023/06/25 04:49:33;;;;;;;5.32;4.82;;;23.10;59.30;;;;;;5055145;28;20306;-73
2023/06/25 04:51:58;;;;;;;5.07;4.57;;;23.10;59.30;;;;;;5054000;28;20163;-74
2023/06/25 04:54:24;;;;;;;5.03;4.63;;;23.10;59.30;;;;;;5054825;28;20167;-71
2023/06/25 04:56:49;;;;;;;4.85;4.43;;;23.20;59.30;;;;;;5054128;28;20177;-71
2023/06/25 04:59:15;;;;;;;6.05;5.45;;;23.20;59.30;;;;;;5054386;28;20211;-70
2023/06/25 05:01:40;;;;;;;5.45;4.95;;;23.20;59.30;;;;;;5054323;28;20182;-71
2023/06/25 05:04:06;;;;;;;5.55;5.15;;;23.20;59.30;;;;;;5052494;28;20167;-71
2023/06/25 05:06:31;;;;;;;4.90;4.50;;;23.20;59.30;;;;;;5053861;28;20180;-71
2023/06/25 05:08:57;;;;;;;6.60;5.28;;;23.20;59.30;;;;;;5053278;28;20199;-71
2023/06/25 05:11:22;;;;;;;5.03;4.63;;;23.20;59.90;;;;;;5053365;28;20219;-71
2023/06/25 05:13:48;;;;;;;5.68;5.18;;;23.20;59.20;;;;;;5054446;28;20598;-71
2023/06/25 05:16:14;;;;;;;5.22;4.82;;;23.20;59.20;;;;;;5054125;28;20562;-71
2023/06/25 05:18:39;;;;;;;4.95;4.57;;;23.20;59.20;;;;;;5053755;28;20186;-71
2023/06/25 05:21:05;;;;;;;5.47;4.97;;;23.20;59.30;;;;;;5054076;28;20210;-71
2023/06/25 05:23:38;;;;;;;4.78;4.38;;;23.20;59.90;;;;;;5054377;28;20199;-71
2023/06/25 05:26:04;;;;;;;5.10;4.70;;;23.20;59.20;;;;;;5053153;28;20179;-73
2023/06/25 05:28:29;;;;;;;4.93;4.38;;;23.20;59.30;;;;;;5054166;28;20191;-73
2023/06/25 05:30:55;;;;;;;5.32;4.82;;;23.20;59.20;;;;;;5054070;28;20215;-70
2023/06/25 05:33:20;;;;;;;5.32;4.88;;;23.20;59.20;;;;;;5053344;28;20253;-69
2023/06/25 05:35:46;;;;;;;5.10;4.70;;;23.30;59.30;;;;;;5053666;28;20174;-70
2023/06/25 05:38:11;;;;;;;4.53;4.20;;;23.30;59.30;;;;;;5053274;28;20223;-70
2023/06/25 05:40:37;;;;;;;4.47;4.15;;;23.30;59.30;;;;;;5053242;28;20175;-72
2023/06/25 05:43:02;;;;;;;5.10;4.68;;;23.30;59.30;;;;;;5053726;28;20186;-71
2023/06/25 05:45:28;;;;;;;5.20;4.78;;;23.30;59.20;;;;;;5054026;28;20573;-72
2023/06/25 05:47:54;;;;;;;5.50;5.00;;;23.20;59.20;;;;;;5053275;28;20183;-73
2023/06/25 05:50:19;;;;;;;5.20;4.80;;;23.30;59.20;;;;;;5053298;28;20215;-74
2023/06/25 05:52:45;;;;;;;5.15;4.75;;;23.20;59.20;;;;;;5053777;28;20270;-73
2023/06/25 05:55:11;;;;;;;4.90;4.50;;;23.20;59.20;;;;;;5052717;28;20680;-72
2023/06/25 05:57:37;;;;;;;4.97;4.57;;;23.30;59.30;;;;;;5053619;28;20630;-72
2023/06/25 06:00:03;;;;;;;4.88;4.47;;;23.30;59.20;;;;;;5052914;28;20189;-71
2023/06/25 06:02:29;;;;;;;5.03;4.60;;;23.30;59.20;;;;;;5053564;28;20171;-71
2023/06/25 06:04:54;;;;;;;4.50;4.20;;;23.30;59.20;;;;;;5053433;28;20259;-71
2023/06/25 06:07:20;;;;;;;4.80;4.40;;;23.30;59.20;;;;;;5052489;28;20179;-72
2023/06/25 06:09:46;;;;;;;4.72;4.32;;;23.30;59.20;;;;;;5053254;28;20639;-72
2023/06/25 06:12:11;;;;;;;5.13;4.72;;;23.30;59.20;;;;;;5053033;28;20170;-72
2023/06/25 06:14:38;;;;;;;4.72;4.32;;;23.30;59.10;;;;;;5052601;28;20216;-71
2023/06/25 06:17:04;;;;;;;4.20;3.90;;;23.30;59.10;;;;;;5053125;28;20538;-72
2023/06/25 06:19:30;;;;;;;4.38;4.07;;;23.30;59.10;;;;;;5052818;28;20213;-72
2023/06/25 06:21:55;;;;;;;4.90;4.47;;;23.40;59.10;;;;;;5051546;28;20206;-71
2023/06/25 06:24:21;;;;;;;5.53;5.03;;;23.30;59.10;;;;;;5051563;28;20179;-72
2023/06/25 06:26:48;;;;;;;4.93;4.53;;;23.40;59.20;;;;;;5053035;28;20179;-72
2023/06/25 06:29:14;;;;;;;5.07;4.60;;;23.40;59.20;;;;;;5050657;28;20238;-72
2023/06/25 06:31:40;;;;;;;4.97;4.57;;;23.40;59.20;;;;;;5052288;28;20182;-70
2023/06/25 06:34:06;;;;;;;4.75;4.35;;;23.40;59.20;;;;;;5052848;28;20179;-70
2023/06/25 06:36:31;;;;;;;4.97;4.57;;;23.40;59.20;;;;;;5052245;28;20177;-69
2023/06/25 06:38:57;;;;;;;5.30;4.80;;;23.40;59.20;;;;;;5052364;28;20223;-70
2023/06/25 06:41:22;;;;;;;4.60;4.28;;;23.40;59.20;;;;;;5053072;28;20266;-72
2023/06/25 06:43:48;;;;;;;4.75;4.35;;;23.40;59.20;;;;;;5052323;28;20253;-72
2023/06/25 06:46:13;;;;;;;4.90;4.50;;;23.40;59.20;;;;;;5052500;28;20179;-72
2023/06/25 06:48:39;;;;;;;5.00;4.60;;;23.40;59.20;;;;;;5052729;28;20181;-73
2023/06/25 06:51:04;;;;;;;5.38;4.97;;;23.40;59.10;;;;;;5051923;28;20305;-74
2023/06/25 06:53:30;;;;;;;5.07;4.68;;;23.40;59.10;;;;;;5052712;28;20179;-74
2023/06/25 06:55:56;;;;;;;4.88;4.47;;;23.50;59.10;;;;;;5052306;28;20181;-72
2023/06/25 06:58:21;;;;;;;5.05;4.65;;;23.50;59.20;;;;;;5051995;28;20198;-71
2023/06/25 07:00:47;;;;;;;5.10;4.65;;;23.50;59.20;;;;;;5052117;28;20171;-71
2023/06/25 07:03:12;;;;;;;5.38;4.97;;;23.50;59.10;;;;;;5052128;28;20191;-70
2023/06/25 07:05:38;;;;;;;4.93;4.53;;;23.50;59.10;;;;;;5051349;28;20710;-71
2023/06/25 07:08:04;;;;;;;4.70;4.30;;;23.50;59.10;;;;;;5052173;28;20258;-71
2023/06/25 07:10:29;;;;;;;4.90;4.50;;;23.50;59.10;;;;;;5052099;28;20510;-71
2023/06/25 07:12:55;;;;;;;4.75;4.35;;;23.50;59.10;;;;;;5052596;28;20163;-72
2023/06/25 07:15:20;;;;;;;5.32;4.82;;;23.50;59.10;;;;;;5051607;28;20194;-71
2023/06/25 07:17:46;;;;;;;5.00;4.40;;;23.60;59.10;;;;;;5051761;28;20178;-72
2023/06/25 07:20:12;;;;;;;5.15;4.75;;;23.60;59.00;;;;;;5051953;28;20190;-71
2023/06/25 07:22:39;;;;;;;4.13;3.83;;;23.60;59.00;;;;;;5052343;28;20225;-71
2023/06/25 07:25:07;;;;;;;4.80;4.40;;;23.60;59.60;;;;;;5051343;28;20182;-73
2023/06/25 07:27:32;;;;;;;4.57;4.15;;;23.60;59.00;;;;;;5052221;28;20179;-72
2023/06/25 07:29:58;;;;;;;4.65;4.25;;;23.60;59.00;;;;;;5052043;28;20210;-72
2023/06/25 07:32:23;;;;;;;5.50;5.10;;;23.60;59.00;;;;;;5051687;28;20175;-70
2023/06/25 07:34:49;;;;;;;4.78;4.38;;;23.60;59.00;;;;;;5052319;28;20175;-69
2023/06/25 07:37:14;;;;;;;4.47;4.07;;;23.60;59.00;;;;;;5051372;28;20308;-71
2023/06/25 07:39:40;;;;;;;5.10;4.70;;;23.60;59.00;;;;;;5051407;28;20227;-71
2023/06/25 07:42:06;;;;;;;5.20;4.80;;;23.60;59.00;;;;;;5052241;28;20186;-71
2023/06/25 07:44:31;;;;;;;4.63;4.22;;;23.60;59.00;;;;;;5052475;28;20183;-72
2023/06/25 07:46:57;;;;;;;4.53;4.13;;;23.60;58.90;;;;;;5051298;28;20548;-74
2023/06/25 07:49:22;;;;;;;4.25;3.95;;;23.60;59.00;;;;;;5052129;28;20211;-74
2023/06/25 07:51:52;;;;;;;4.45;4.13;;;23.70;59.00;;;;;;5052053;28;20258;-75
2023/06/25 07:54:18;;;;;;;4.55;4.20;;;23.70;59.00;;;;;;5051539;28;20179;-73
2023/06/25 07:56:44;;;;;;;4.38;4.07;;;23.70;59.00;;;;;;5051996;28;20189;-72
2023/06/25 07:59:12;;;;;;;4.35;4.05;;;23.70;58.90;;;;;;5051854;28;20191;-70
2023/06/25 08:01:37;;;;;;;4.32;4.03;;;23.70;58.90;;;;;;5051674;28;20179;-72
2023/06/25 08:04:03;;;;;;;4.47;4.10;;;23.70;58.90;;;;;;5051868;28;20183;-71
2023/06/25 08:06:29;;;;;;;4.50;4.10;;;23.70;58.90;;;;;;5052079;28;20692;-71
2023/06/25 08:08:55;;;;;;;4.18;3.88;;;23.70;58.90;;;;;;5051480;28;20584;-71
2023/06/25 08:11:20;;;;;;;4.22;3.92;;;23.70;58.90;;;;;;5052044;28;20191;-72
2023/06/25 08:13:46;;;;;;;4.53;4.13;;;23.80;58.90;;;;;;5051435;28;20168;-72
2023/06/25 08:16:11;;;;;;;4.70;4.30;;;23.80;58.90;;;;;;5051942;28;20174;-72
2023/06/25 08:18:37;;;;;;;4.25;3.85;;;23.80;58.90;;;;;;5055284;28;20532;-72
2023/06/25 08:21:02;;;;;;;4.00;3.70;;;23.80;58.80;;;;;;5054383;28;20666;-71
2023/06/25 08:23:28;;;;;;;4.60;4.20;;;23.80;58.80;;;;;;5055753;28;20285;-73
2023/06/25 08:25:54;;;;;;;4.50;4.20;;;23.80;58.80;;;;;;5055592;28;20182;-73
2023/06/25 08:28:20;;;;;;;4.82;4.30;;;23.90;58.80;;;;;;5054013;28;20660;-72
2023/06/25 08:30:45;;;;;;;4.63;4.22;;;23.90;58.80;;;;;;5055239;28;20214;-70
2023/06/25 08:33:11;;;;;;;4.60;4.20;;;23.90;58.80;;;;;;5055150;28;20622;-68
2023/06/25 08:35:36;;;;;;;4.43;4.03;;;23.90;58.80;;;;;;5054669;28;20571;-70
2023/06/25 08:38:02;;;;;;;4.00;3.70;;;23.90;58.80;;;;;;5054677;28;20610;-70
2023/06/25 08:40:27;;;;;;;4.50;4.20;;;24.00;58.80;;;;;;5055175;28;20171;-72
2023/06/25 08:42:53;;;;;;;4.22;3.92;;;23.90;59.30;;;;;;5054528;28;20179;-73
2023/06/25 08:45:18;;;;;;;4.20;3.90;;;24.00;58.70;;;;;;5054449;28;20246;-74
2023/06/25 08:47:44;;;;;;;4.60;4.20;;;24.00;58.70;;;;;;5054783;28;20179;-74
2023/06/25 08:50:09;;;;;;;4.90;4.50;;;24.00;58.70;;;;;;5052638;28;20207;-76
2023/06/25 08:52:35;;;;;;;4.43;4.03;;;24.00;58.70;;;;;;5055052;28;20174;-75
2023/06/25 08:55:01;;;;;;;3.83;3.53;;;24.00;58.70;;;;;;5054705;28;20624;-74
2023/06/25 08:57:26;;;;;;;3.92;3.63;;;24.10;58.70;;;;;;5053446;28;20171;-73
2023/06/25 08:59:52;;;;;;;4.80;4.18;;;24.00;58.60;;;;;;5054748;28;20171;-73
2023/06/25 09:02:18;;;;;;;4.45;4.10;;;24.00;58.60;;;;;;5054384;28;20273;-72
2023/06/25 09:04:46;;;;;;;4.47;4.07;;;24.00;58.60;;;;;;5053986;28;20641;-73
2023/06/25 09:07:15;;;;;;;4.68;3.65;;;24.10;58.60;;;;;;5054621;28;20198;-74
2023/06/25 09:09:42;;;;;;;4.97;4.50;;;24.10;58.60;;;;;;5054802;28;20569;-76
2023/06/25 09:12:07;;;;;;;4.63;4.22;;;24.10;58.60;;;;;;5053896;28;20198;-76
2023/06/25 09:14:33;;;;;;;4.20;3.90;;;24.20;58.90;;;;;;5053734;28;20210;-73
2023/06/25 09:16:59;;;;;;;4.47;4.07;;;24.20;58.70;;;;;;5053719;28;20612;-75
2023/06/25 09:19:24;;;;;;;4.10;3.72;;;24.20;58.70;;;;;;5054349;28;20167;-73
2023/06/25 09:21:50;;;;;;;4.60;4.20;;;24.20;58.60;;;;;;5054935;28;20269;-75
2023/06/25 09:24:17;;;;;;;4.82;4.32;;;24.20;58.70;;;;;;5053267;28;20183;-75
2023/06/25 09:26:50;;;;;;;4.60;4.20;;;24.20;58.70;;;;;;5054435;28;20171;-77
2023/06/25 09:29:16;;;;;;;4.43;4.13;;;24.20;58.70;;;;;;5053658;28;20325;-75
2023/06/25 09:31:45;;;;;;;4.65;4.20;;;24.20;58.70;;;;;;5053668;28;20229;-73
2023/06/25 09:34:13;;;;;;;5.13;4.63;;;24.30;58.80;;;;;;5053749;28;20307;-73
2023/06/25 09:36:39;;;;;;;4.93;4.43;;;24.30;59.30;;;;;;5053998;28;20171;-72
2023/06/25 09:39:05;;;;;;;5.70;4.20;;;24.30;58.80;;;;;;5052668;28;20258;-73
2023/06/25 09:41:33;;;;;;;4.93;4.50;;;24.30;58.70;;;;;;5054109;28;20183;-75
2023/06/25 09:43:59;;;;;;;4.30;3.90;;;24.30;58.70;;;;;;5052375;28;20203;-75
2023/06/25 09:46:24;;;;;;;4.88;4.40;;;24.30;58.70;;;;;;5051597;28;20585;-76
2023/06/25 09:48:51;;;;;;;4.68;3.90;;;24.30;58.70;;;;;;5035809;28;20553;-76
2023/06/25 09:51:17;;;;;;;4.40;4.00;;;24.40;58.70;;;;;;5035774;28;20175;-76
2023/06/25 09:53:43;;;;;;;4.22;3.92;;;24.40;58.70;;;;;;5052006;28;20265;-76
2023/06/25 09:56:08;;;;;;;4.53;4.13;;;24.40;58.70;;;;;;5053441;28;20183;-76
2023/06/25 09:58:34;;;;;;;4.63;3.75;;;24.40;58.70;;;;;;5053793;28;20167;-73
2023/06/25 10:01:00;;;;;;;4.13;3.83;;;24.50;58.70;;;;;;5052577;28;20757;-73
2023/06/25 10:03:26;;;;;;;4.63;4.22;;;24.50;58.60;;;;;;5052023;28;20204;-73
2023/06/25 10:05:51;;;;;;;4.65;4.25;;;24.50;58.60;;;;;;5052105;28;20261;-72
2023/06/25 10:08:18;;;;;;;4.93;4.40;;;24.50;58.50;;;;;;5051366;28;20183;-75
2023/06/25 10:10:44;;;;;;;4.53;4.22;;;24.50;58.50;;;;;;5035753;28;20214;-75
2023/06/25 10:13:10;;;;;;;4.70;4.30;;;24.50;58.50;;;;;;5034999;28;20171;-75
2023/06/25 10:15:36;;;;;;;4.35;3.95;;;24.50;58.50;;;;;;5051678;28;20178;-73
2023/06/25 10:18:03;;;;;;;4.97;4.47;;;24.50;58.40;;;;;;5053059;28;20254;-75
2023/06/25 10:20:38;;;;;;;4.30;4.00;;;24.50;58.40;;;;;;5052394;28;20646;-73
2023/06/25 10:23:07;;;;;;;4.57;4.18;;;24.60;58.40;;;;;;5051400;28;20186;-75
2023/06/25 10:25:34;;;;;;;4.38;3.97;;;24.60;58.40;;;;;;5053258;28;20206;-76
2023/06/25 10:28:05;;;;;;;4.38;4.07;;;24.60;58.40;;;;;;5052175;28;20179;-76
2023/06/25 10:30:40;;;;;;;4.47;4.18;;;24.60;58.30;;;;;;5053284;28;20218;-73
2023/06/25 10:33:06;;;;;;;4.78;4.35;;;24.60;58.30;;;;;;5052870;28;20175;-73
2023/06/25 10:35:36;;;;;;;4.82;4.43;;;24.60;58.30;;;;;;5051573;28;20540;-72
2023/06/25 10:38:02;;;;;;;4.50;4.10;;;24.70;58.30;;;;;;5052287;28;20226;-73
2023/06/25 10:40:40;;;;;;;4.22;3.88;;;24.70;58.30;;;;;;5052001;28;20187;-73
2023/06/25 10:43:06;;;;;;;5.63;4.68;;;24.70;58.30;;;;;;5052023;28;20177;-74
2023/06/25 10:45:32;;;;;;;7.45;4.30;;;24.70;58.30;;;;;;5051752;28;20179;-68
2023/06/25 10:48:03;;;;;;;5.47;3.97;;;24.80;58.30;;;;;;5052124;28;20186;-68
2023/06/25 10:50:34;;;;;;;5.45;4.47;;;24.70;58.40;;;;;;5052095;28;20217;-68
2023/06/25 10:53:01;;;;;;;5.05;4.43;;;24.70;58.20;;;;;;5052373;28;20173;-69
2023/06/25 10:55:26;;;;;;;7.32;4.80;;;24.70;58.40;;;;;;5051627;28;20649;-70
2023/06/25 10:57:53;;;;;;;7.38;4.13;;;24.70;58.40;;;;;;5052674;28;20171;-68
2023/06/25 11:00:23;;;;;;;4.63;4.22;;;24.80;58.50;;;;;;5052086;28;20238;-68
2023/06/25 11:02:52;;;;;;;5.97;4.32;;;24.80;58.60;;;;;;5052001;28;20175;-70
2023/06/25 11:05:19;;;;;;;6.40;4.68;;;24.80;58.60;;;;;;5052049;28;20224;-69
2023/06/25 11:07:45;;;;;;;6.43;4.78;;;24.80;59.20;;;;;;5052368;28;20232;-68
2023/06/25 11:10:13;;;;;;;6.30;4.85;;;24.70;58.50;;;;;;5051379;28;20218;-69
2023/06/25 11:12:38;;;;;;;9.05;5.57;;;24.80;58.60;;;;;;5051221;28;20653;-68
2023/06/25 11:15:04;;;;;;;6.47;5.07;;;24.80;58.70;;;;;;5051782;28;20365;-68
2023/06/25 11:17:30;;;;;;;5.78;5.20;;;24.80;58.70;;;;;;5051417;28;20749;-67
2023/06/25 11:19:57;;;;;;;11.15;6.78;;;24.80;58.80;;;;;;5052526;28;20175;-68
2023/06/25 11:22:22;;;;;;;8.77;6.20;;;24.90;58.70;;;;;;5052417;28;20183;-67
2023/06/25 11:24:49;;;;;;;12.27;7.15;;;24.90;58.80;;;;;;5051737;28;20185;-68
2023/06/25 11:27:24;;;;;;;12.05;7.05;;;24.90;59.30;;;;;;5052222;28;20258;-68
2023/06/25 11:29:51;;;;;;;10.80;6.40;;;25.00;59.50;;;;;;5052470;28;20206;-69
2023/06/25 11:32:21;;;;;;;9.23;6.85;;;24.90;59.40;;;;;;5050349;28;20179;-71
2023/06/25 11:34:47;;;;;;;11.82;6.80;;;25.00;59.80;;;;;;5052339;28;20657;-72
2023/06/25 11:37:14;;;;;;;8.07;7.28;;;25.00;59.60;;;;;;5052010;28;20237;-70
2023/06/25 11:39:46;;;;;;;9.30;7.55;;;25.00;59.90;;;;;;5051429;28;20222;-69
2023/06/25 11:42:13;;;;;;;9.20;7.15;;;25.00;59.90;;;;;;5052247;28;20190;-69
2023/06/25 11:44:39;;;;;;;8.65;7.43;;;25.00;60.10;;;;;;5051797;28;20218;-68
2023/06/25 11:47:04;;;;;;;10.73;7.55;;;25.00;59.90;;;;;;5051266;28;20892;-59
2023/06/25 11:49:30;;;;;;;10.85;7.40;;;25.00;59.90;;;;;;5051999;28;20199;-59
2023/06/25 11:51:57;;;;;;;10.43;7.95;;;25.00;60.10;;;;;;5053562;28;20320;-59
2023/06/25 11:54:24;;;;;;;10.15;7.38;;;24.90;60.20;;;;;;5056035;28;20171;-58
2023/06/25 11:56:49;;;;;;;11.60;7.57;;;24.90;60.60;;;;;;5056195;28;20225;-59
2023/06/25 11:59:15;;;;;;;10.13;7.50;;;24.90;61.40;;;;;;5054680;28;21117;-59
2023/06/25 12:01:40;;;;;;;10.82;8.48;;;24.90;60.80;;;;;;5055774;28;20183;-58
2023/06/25 12:04:06;;;;;;;8.95;7.55;;;24.90;60.70;;;;;;5055159;28;20212;-59
2023/06/25 12:06:32;;;;;;;8.88;7.57;;;25.00;60.70;;;;;;5054685;28;20258;-58
2023/06/25 12:08:57;;;;;;;11.52;7.85;;;24.90;60.30;;;;;;5055288;28;20178;-59
2023/06/25 12:11:23;;;;;;;8.98;7.78;;;24.90;60.40;;;;;;5055696;28;20668;-59
2023/06/25 12:13:48;;;;;;;10.05;7.80;;;24.90;60.40;;;;;;5055017;28;20175;-59
2023/06/25 12:16:14;;;;;;;11.57;7.15;;;24.90;60.30;;;;;;5055073;28;20685;-60
2023/06/25 12:18:39;;;;;;;8.50;6.88;;;24.90;60.10;;;;;;5055154;28;20258;-59
2023/06/25 12:21:05;;;;;;;11.85;8.35;;;24.90;60.00;;;;;;5054518;28;20656;-59
2023/06/25 12:23:31;;;;;;;13.80;7.60;;;25.00;59.90;;;;;;5055418;28;20273;-59
2023/06/25 12:25:56;;;;;;;9.38;7.30;;;25.00;59.90;;;;;;5055149;28;20561;-58
2023/06/25 12:28:22;;;;;;;13.73;7.10;;;25.00;59.80;;;;;;5054679;28;20650;-58
2023/06/25 12:30:47;;;;;;;15.75;7.65;;;25.00;59.70;;;;;;5055309;28;20321;-59
2023/06/25 12:33:13;;;;;;;10.73;7.97;;;24.90;59.70;;;;;;5055065;28;20210;-59
2023/06/25 12:35:38;;;;;;;10.73;7.20;;;24.90;59.60;;;;;;5054764;28;20229;-59
2023/06/25 12:38:04;;;;;;;8.00;7.20;;;24.90;59.50;;;;;;5054999;28;20352;-59